sensor_id;sensor_type;location;lat;lon;timestamp;P1;durP1;ratioP1;P2;durP2;ratioP2
41623;SDS011;27319;50.306;18.926;2024-02-21T00:02:58;28.27;;;11.20;;
41623;SDS011;27319;50.306;18.926;2024-02-21T00:06:59;28.00;;;9.10;;
41623;SDS011;27319;50.306;18.926;2024-02-21T00:11:00;24.58;;;9.63;;
41623;SDS011;27319;50.306;18.926;2024-02-21T00:15:01;20.02;;;8.52;;
41623;SDS011;27319;50.306;18.926;2024-02-21T00:18:57;22.85;;;10.40;;
41623;SDS011;27319;50.306;18.926;2024-02-21T00:22:58;24.27;;;10.57;;
41623;SDS011;27319;50.306;18.926;2024-02-21T00:26:59;30.83;;;12.63;;
41623;SDS011;27319;50.306;18.926;2024-02-21T00:30:59;33.90;;;11.52;;
41623;SDS011;27319;50.306;18.926;2024-02-21T00:35:00;27.63;;;10.55;;
41623;SDS011;27319;50.306;18.926;2024-02-21T00:39:01;37.75;;;14.98;;
41623;SDS011;27319;50.306;18.926;2024-02-21T00:43:02;23.40;;;10.13;;
41623;SDS011;27319;50.306;18.926;2024-02-21T00:47:02;20.75;;;8.80;;
41623;SDS011;27319;50.306;18.926;2024-02-21T00:51:03;21.33;;;8.77;;
41623;SDS011;27319;50.306;18.926;2024-02-21T00:54:04;25.38;;;9.57;;
41623;SDS011;27319;50.306;18.926;2024-02-21T00:57:05;24.42;;;10.85;;
41623;SDS011;27319;50.306;18.926;2024-02-21T01:00:06;27.92;;;10.60;;
41623;SDS011;27319;50.306;18.926;2024-02-21T01:03:08;29.35;;;12.32;;
41623;SDS011;27319;50.306;18.926;2024-02-21T01:07:09;36.17;;;11.77;;
41623;SDS011;27319;50.306;18.926;2024-02-21T01:11:10;31.90;;;11.80;;
41623;SDS011;27319;50.306;18.926;2024-02-21T01:15:11;36.85;;;12.30;;
41623;SDS011;27319;50.306;18.926;2024-02-21T01:19:11;42.60;;;16.50;;
41623;SDS011;27319;50.306;18.926;2024-02-21T01:23:12;32.20;;;12.80;;
41623;SDS011;27319;50.306;18.926;2024-02-21T01:27:13;51.15;;;23.75;;
41623;SDS011;27319;50.306;18.926;2024-02-21T01:31:14;55.25;;;24.88;;
41623;SDS011;27319;50.306;18.926;2024-02-21T01:35:15;56.80;;;24.00;;
41623;SDS011;27319;50.306;18.926;2024-02-21T01:39:15;49.03;;;23.85;;
41623;SDS011;27319;50.306;18.926;2024-02-21T01:43:17;36.03;;;17.13;;
41623;SDS011;27319;50.306;18.926;2024-02-21T01:47:17;65.15;;;23.60;;
41623;SDS011;27319;50.306;18.926;2024-02-21T01:51:18;30.73;;;14.15;;
41623;SDS011;27319;50.306;18.926;2024-02-21T01:55:18;39.33;;;16.85;;
41623;SDS011;27319;50.306;18.926;2024-02-21T01:58:19;26.88;;;10.30;;
41623;SDS011;27319;50.306;18.926;2024-02-21T02:02:20;36.40;;;11.65;;
41623;SDS011;27319;50.306;18.926;2024-02-21T02:05:21;22.30;;;8.40;;
41623;SDS011;27319;50.306;18.926;2024-02-21T02:08:23;42.25;;;14.52;;
41623;SDS011;27319;50.306;18.926;2024-02-21T02:12:23;32.55;;;12.40;;
41623;SDS011;27319;50.306;18.926;2024-02-21T02:16:24;39.05;;;18.25;;
41623;SDS011;27319;50.306;18.926;2024-02-21T02:20:28;28.48;;;12.65;;
41623;SDS011;27319;50.306;18.926;2024-02-21T02:24:28;44.28;;;22.50;;
41623;SDS011;27319;50.306;18.926;2024-02-21T02:28:29;38.10;;;17.20;;
41623;SDS011;27319;50.306;18.926;2024-02-21T02:32:30;26.08;;;13.52;;
41623;SDS011;27319;50.306;18.926;2024-02-21T02:36:34;30.98;;;16.13;;
41623;SDS011;27319;50.306;18.926;2024-02-21T02:40:34;32.00;;;14.57;;
41623;SDS011;27319;50.306;18.926;2024-02-21T02:44:35;23.67;;;8.98;;
41623;SDS011;27319;50.306;18.926;2024-02-21T02:48:36;32.85;;;13.07;;
41623;SDS011;27319;50.306;18.926;2024-02-21T02:52:36;39.80;;;16.20;;
41623;SDS011;27319;50.306;18.926;2024-02-21T02:56:37;32.97;;;11.45;;
41623;SDS011;27319;50.306;18.926;2024-02-21T03:00:38;26.20;;;10.15;;
41623;SDS011;27319;50.306;18.926;2024-02-21T03:04:41;17.25;;;10.15;;
41623;SDS011;27319;50.306;18.926;2024-02-21T03:08:42;21.95;;;9.40;;
41623;SDS011;27319;50.306;18.926;2024-02-21T03:12:43;24.70;;;13.05;;
41623;SDS011;27319;50.306;18.926;2024-02-21T03:16:44;20.88;;;10.85;;
41623;SDS011;27319;50.306;18.926;2024-02-21T03:20:44;29.38;;;15.38;;
41623;SDS011;27319;50.306;18.926;2024-02-21T03:24:45;23.65;;;10.43;;
41623;SDS011;27319;50.306;18.926;2024-02-21T03:28:46;25.38;;;11.88;;
41623;SDS011;27319;50.306;18.926;2024-02-21T03:32:47;28.85;;;10.73;;
41623;SDS011;27319;50.306;18.926;2024-02-21T03:35:47;22.95;;;11.30;;
41623;SDS011;27319;50.306;18.926;2024-02-21T03:38:49;25.45;;;11.40;;
41623;SDS011;27319;50.306;18.926;2024-02-21T03:41:49;28.98;;;16.65;;
41623;SDS011;27319;50.306;18.926;2024-02-21T03:45:50;25.40;;;12.27;;
41623;SDS011;27319;50.306;18.926;2024-02-21T03:49:51;23.80;;;13.60;;
41623;SDS011;27319;50.306;18.926;2024-02-21T03:53:51;25.88;;;11.82;;
41623;SDS011;27319;50.306;18.926;2024-02-21T03:57:52;26.65;;;12.15;;
41623;SDS011;27319;50.306;18.926;2024-02-21T04:01:53;19.48;;;10.05;;
41623;SDS011;27319;50.306;18.926;2024-02-21T04:05:54;22.00;;;10.40;;
41623;SDS011;27319;50.306;18.926;2024-02-21T04:09:54;21.63;;;10.77;;
41623;SDS011;27319;50.306;18.926;2024-02-21T04:13:55;27.77;;;10.50;;
41623;SDS011;27319;50.306;18.926;2024-02-21T04:17:56;27.92;;;12.20;;
41623;SDS011;27319;50.306;18.926;2024-02-21T04:21:57;25.58;;;12.88;;
41623;SDS011;27319;50.306;18.926;2024-02-21T04:24:59;25.70;;;14.05;;
41623;SDS011;27319;50.306;18.926;2024-02-21T04:28:58;34.10;;;14.93;;
41623;SDS011;27319;50.306;18.926;2024-02-21T04:32:59;30.40;;;13.20;;
41623;SDS011;27319;50.306;18.926;2024-02-21T04:37:00;28.63;;;13.88;;
41623;SDS011;27319;50.306;18.926;2024-02-21T04:41:01;38.28;;;17.73;;
41623;SDS011;27319;50.306;18.926;2024-02-21T04:45:01;26.67;;;13.15;;
41623;SDS011;27319;50.306;18.926;2024-02-21T04:49:02;24.20;;;12.43;;
41623;SDS011;27319;50.306;18.926;2024-02-21T04:53:03;35.53;;;15.27;;
41623;SDS011;27319;50.306;18.926;2024-02-21T04:57:04;25.35;;;12.70;;
41623;SDS011;27319;50.306;18.926;2024-02-21T05:01:04;27.30;;;13.10;;
41623;SDS011;27319;50.306;18.926;2024-02-21T05:04:06;28.75;;;13.48;;
41623;SDS011;27319;50.306;18.926;2024-02-21T05:07:07;25.58;;;13.88;;
41623;SDS011;27319;50.306;18.926;2024-02-21T05:10:08;28.77;;;13.73;;
41623;SDS011;27319;50.306;18.926;2024-02-21T05:13:10;33.75;;;15.95;;
41623;SDS011;27319;50.306;18.926;2024-02-21T05:16:11;29.00;;;15.60;;
41623;SDS011;27319;50.306;18.926;2024-02-21T05:19:12;34.85;;;15.50;;
41623;SDS011;27319;50.306;18.926;2024-02-21T05:22:12;29.83;;;15.35;;
41623;SDS011;27319;50.306;18.926;2024-02-21T05:25:13;38.92;;;17.42;;
41623;SDS011;27319;50.306;18.926;2024-02-21T05:28:14;27.58;;;14.90;;
41623;SDS011;27319;50.306;18.926;2024-02-21T05:31:15;33.92;;;16.00;;
41623;SDS011;27319;50.306;18.926;2024-02-21T05:35:11;35.97;;;16.05;;
41623;SDS011;27319;50.306;18.926;2024-02-21T05:39:12;28.13;;;15.80;;
41623;SDS011;27319;50.306;18.926;2024-02-21T05:43:13;29.95;;;15.93;;
41623;SDS011;27319;50.306;18.926;2024-02-21T05:47:13;30.20;;;16.70;;
41623;SDS011;27319;50.306;18.926;2024-02-21T05:51:14;29.27;;;16.58;;
41623;SDS011;27319;50.306;18.926;2024-02-21T05:55:15;32.50;;;16.70;;
41623;SDS011;27319;50.306;18.926;2024-02-21T05:59:16;30.40;;;16.25;;
41623;SDS011;27319;50.306;18.926;2024-02-21T06:03:17;25.60;;;13.02;;
41623;SDS011;27319;50.306;18.926;2024-02-21T06:07:17;35.08;;;16.45;;
41623;SDS011;27319;50.306;18.926;2024-02-21T06:11:18;46.03;;;19.73;;
41623;SDS011;27319;50.306;18.926;2024-02-21T06:15:19;48.03;;;20.13;;
41623;SDS011;27319;50.306;18.926;2024-02-21T06:19:01;47.10;;;20.02;;
41623;SDS011;27319;50.306;18.926;2024-02-21T06:22:01;41.08;;;19.02;;
41623;SDS011;27319;50.306;18.926;2024-02-21T06:25:08;34.80;;;18.33;;
41623;SDS011;27319;50.306;18.926;2024-02-21T06:28:09;35.28;;;18.33;;
41623;SDS011;27319;50.306;18.926;2024-02-21T06:32:09;38.20;;;19.25;;
41623;SDS011;27319;50.306;18.926;2024-02-21T06:36:10;36.05;;;19.92;;
41623;SDS011;27319;50.306;18.926;2024-02-21T06:39:11;39.58;;;20.75;;
41623;SDS011;27319;50.306;18.926;2024-02-21T06:43:12;43.25;;;19.98;;
41623;SDS011;27319;50.306;18.926;2024-02-21T06:46:21;37.28;;;19.27;;
41623;SDS011;27319;50.306;18.926;2024-02-21T06:49:23;40.42;;;18.17;;
41623;SDS011;27319;50.306;18.926;2024-02-21T06:53:24;38.40;;;19.38;;
41623;SDS011;27319;50.306;18.926;2024-02-21T06:57:00;40.97;;;19.75;;
41623;SDS011;27319;50.306;18.926;2024-02-21T07:00:01;40.10;;;21.88;;
41623;SDS011;27319;50.306;18.926;2024-02-21T07:03:03;46.40;;;22.88;;
41623;SDS011;27319;50.306;18.926;2024-02-21T07:06:04;39.92;;;21.40;;
41623;SDS011;27319;50.306;18.926;2024-02-21T07:09:05;33.97;;;20.63;;
41623;SDS011;27319;50.306;18.926;2024-02-21T07:12:06;36.20;;;19.08;;
41623;SDS011;27319;50.306;18.926;2024-02-21T07:15:07;32.55;;;18.27;;
41623;SDS011;27319;50.306;18.926;2024-02-21T07:19:07;42.78;;;24.70;;
41623;SDS011;27319;50.306;18.926;2024-02-21T07:23:08;30.92;;;16.48;;
41623;SDS011;27319;50.306;18.926;2024-02-21T07:26:09;40.80;;;16.27;;
41623;SDS011;27319;50.306;18.926;2024-02-21T07:29:10;36.83;;;18.35;;
41623;SDS011;27319;50.306;18.926;2024-02-21T07:32:10;39.13;;;15.40;;
41623;SDS011;27319;50.306;18.926;2024-02-21T07:35:13;36.17;;;15.57;;
41623;SDS011;27319;50.306;18.926;2024-02-21T07:38:13;30.60;;;14.88;;
41623;SDS011;27319;50.306;18.926;2024-02-21T07:41:14;33.53;;;14.75;;
41623;SDS011;27319;50.306;18.926;2024-02-21T07:45:15;33.78;;;14.60;;
41623;SDS011;27319;50.306;18.926;2024-02-21T07:48:16;35.58;;;16.27;;
41623;SDS011;27319;50.306;18.926;2024-02-21T07:51:19;29.85;;;14.43;;
41623;SDS011;27319;50.306;18.926;2024-02-21T07:54:20;25.83;;;13.05;;
41623;SDS011;27319;50.306;18.926;2024-02-21T07:57:21;29.70;;;13.50;;
41623;SDS011;27319;50.306;18.926;2024-02-21T08:00:22;29.30;;;13.65;;
41623;SDS011;27319;50.306;18.926;2024-02-21T08:03:23;33.63;;;13.45;;
41623;SDS011;27319;50.306;18.926;2024-02-21T08:07:24;30.42;;;12.90;;
41623;SDS011;27319;50.306;18.926;2024-02-21T08:11:24;30.77;;;13.40;;
41623;SDS011;27319;50.306;18.926;2024-02-21T08:15:25;30.92;;;13.40;;
41623;SDS011;27319;50.306;18.926;2024-02-21T08:18:29;26.50;;;14.70;;
41623;SDS011;27319;50.306;18.926;2024-02-21T08:21:30;32.03;;;15.85;;
41623;SDS011;27319;50.306;18.926;2024-02-21T08:24:31;30.67;;;14.65;;
41623;SDS011;27319;50.306;18.926;2024-02-21T08:27:32;27.10;;;13.93;;
41623;SDS011;27319;50.306;18.926;2024-02-21T08:30:33;33.88;;;15.30;;
41623;SDS011;27319;50.306;18.926;2024-02-21T08:33:35;31.45;;;15.13;;
41623;SDS011;27319;50.306;18.926;2024-02-21T08:36:36;32.38;;;13.05;;
41623;SDS011;27319;50.306;18.926;2024-02-21T08:39:37;25.83;;;12.70;;
41623;SDS011;27319;50.306;18.926;2024-02-21T08:42:40;28.02;;;13.18;;
41623;SDS011;27319;50.306;18.926;2024-02-21T08:45:42;32.38;;;16.40;;
41623;SDS011;27319;50.306;18.926;2024-02-21T08:48:43;35.58;;;16.00;;
41623;SDS011;27319;50.306;18.926;2024-02-21T08:51:47;29.63;;;15.13;;
41623;SDS011;27319;50.306;18.926;2024-02-21T08:54:48;26.63;;;13.18;;
41623;SDS011;27319;50.306;18.926;2024-02-21T08:58:49;27.23;;;11.95;;
41623;SDS011;27319;50.306;18.926;2024-02-21T09:02:49;27.38;;;11.75;;
41623;SDS011;27319;50.306;18.926;2024-02-21T09:05:50;23.52;;;11.70;;
41623;SDS011;27319;50.306;18.926;2024-02-21T09:08:51;26.55;;;11.60;;
41623;SDS011;27319;50.306;18.926;2024-02-21T09:11:52;24.55;;;11.60;;
41623;SDS011;27319;50.306;18.926;2024-02-21T09:15:53;32.00;;;12.88;;
41623;SDS011;27319;50.306;18.926;2024-02-21T09:19:53;30.10;;;15.50;;
41623;SDS011;27319;50.306;18.926;2024-02-21T09:22:56;27.20;;;12.65;;
41623;SDS011;27319;50.306;18.926;2024-02-21T09:26:57;24.30;;;10.55;;
41623;SDS011;27319;50.306;18.926;2024-02-21T09:30:58;30.95;;;11.20;;
41623;SDS011;27319;50.306;18.926;2024-02-21T09:34:58;27.95;;;12.85;;
41623;SDS011;27319;50.306;18.926;2024-02-21T09:37:59;33.10;;;14.00;;
41623;SDS011;27319;50.306;18.926;2024-02-21T09:41:06;29.55;;;15.07;;
41623;SDS011;27319;50.306;18.926;2024-02-21T09:44:22;31.20;;;18.27;;
41623;SDS011;27319;50.306;18.926;2024-02-21T09:48:40;35.72;;;16.60;;
41623;SDS011;27319;50.306;18.926;2024-02-21T09:52:19;22.35;;;12.45;;
41623;SDS011;27319;50.306;18.926;2024-02-21T09:55:21;27.88;;;12.57;;
41623;SDS011;27319;50.306;18.926;2024-02-21T09:59:21;31.83;;;18.00;;
41623;SDS011;27319;50.306;18.926;2024-02-21T10:02:24;21.80;;;10.80;;
41623;SDS011;27319;50.306;18.926;2024-02-21T10:06:27;23.92;;;9.75;;
41623;SDS011;27319;50.306;18.926;2024-02-21T10:10:25;20.92;;;9.43;;
41623;SDS011;27319;50.306;18.926;2024-02-21T10:13:28;22.13;;;10.65;;
41623;SDS011;27319;50.306;18.926;2024-02-21T10:16:30;32.85;;;17.10;;
41623;SDS011;27319;50.306;18.926;2024-02-21T10:19:31;25.92;;;12.00;;
41623;SDS011;27319;50.306;18.926;2024-02-21T10:22:32;32.90;;;14.68;;
41623;SDS011;27319;50.306;18.926;2024-02-21T10:25:36;25.67;;;11.63;;
41623;SDS011;27319;50.306;18.926;2024-02-21T10:29:49;25.73;;;10.05;;
41623;SDS011;27319;50.306;18.926;2024-02-21T10:33:53;25.45;;;12.43;;
41623;SDS011;27319;50.306;18.926;2024-02-21T10:37:47;23.52;;;9.70;;
41623;SDS011;27319;50.306;18.926;2024-02-21T10:41:48;32.55;;;12.23;;
41623;SDS011;27319;50.306;18.926;2024-02-21T10:44:50;23.38;;;10.32;;
41623;SDS011;27319;50.306;18.926;2024-02-21T10:47:52;19.60;;;9.23;;
41623;SDS011;27319;50.306;18.926;2024-02-21T10:50:57;33.20;;;17.25;;
41623;SDS011;27319;50.306;18.926;2024-02-21T10:54:23;21.63;;;11.25;;
41623;SDS011;27319;50.306;18.926;2024-02-21T10:57:56;17.35;;;9.05;;
41623;SDS011;27319;50.306;18.926;2024-02-21T11:00:58;24.92;;;9.93;;
41623;SDS011;27319;50.306;18.926;2024-02-21T11:04:59;20.35;;;9.18;;
41623;SDS011;27319;50.306;18.926;2024-02-21T11:09:03;21.25;;;11.32;;
41623;SDS011;27319;50.306;18.926;2024-02-21T11:13:12;33.00;;;13.90;;
41623;SDS011;27319;50.306;18.926;2024-02-21T11:17:19;20.83;;;9.55;;
41623;SDS011;27319;50.306;18.926;2024-02-21T11:21:19;21.10;;;9.15;;
41623;SDS011;27319;50.306;18.926;2024-02-21T11:25:23;21.80;;;9.90;;
41623;SDS011;27319;50.306;18.926;2024-02-21T11:29:24;24.73;;;11.48;;
41623;SDS011;27319;50.306;18.926;2024-02-21T11:33:27;30.00;;;8.50;;
41623;SDS011;27319;50.306;18.926;2024-02-21T11:37:28;16.45;;;7.13;;
41623;SDS011;27319;50.306;18.926;2024-02-21T11:41:29;19.23;;;6.75;;
41623;SDS011;27319;50.306;18.926;2024-02-21T11:45:42;18.52;;;9.57;;
41623;SDS011;27319;50.306;18.926;2024-02-21T11:49:45;32.72;;;9.95;;
41623;SDS011;27319;50.306;18.926;2024-02-21T11:53:46;22.10;;;9.77;;
41623;SDS011;27319;50.306;18.926;2024-02-21T11:57:50;20.40;;;9.32;;
41623;SDS011;27319;50.306;18.926;2024-02-21T12:01:50;25.90;;;9.43;;
41623;SDS011;27319;50.306;18.926;2024-02-21T12:05:52;27.10;;;10.07;;
41623;SDS011;27319;50.306;18.926;2024-02-21T12:09:52;28.52;;;16.10;;
41623;SDS011;27319;50.306;18.926;2024-02-21T12:14:02;34.08;;;16.65;;
41623;SDS011;27319;50.306;18.926;2024-02-21T12:18:00;23.00;;;10.70;;
41623;SDS011;27319;50.306;18.926;2024-02-21T12:22:00;53.38;;;24.13;;
41623;SDS011;27319;50.306;18.926;2024-02-21T12:26:01;122.68;;;51.42;;
41623;SDS011;27319;50.306;18.926;2024-02-21T12:30:02;37.63;;;18.08;;
41623;SDS011;27319;50.306;18.926;2024-02-21T12:34:03;95.47;;;41.78;;
41623;SDS011;27319;50.306;18.926;2024-02-21T12:38:04;102.18;;;40.70;;
41623;SDS011;27319;50.306;18.926;2024-02-21T12:42:04;66.05;;;29.73;;
41623;SDS011;27319;50.306;18.926;2024-02-21T12:46:05;44.35;;;16.13;;
41623;SDS011;27319;50.306;18.926;2024-02-21T12:50:06;22.48;;;10.50;;
41623;SDS011;27319;50.306;18.926;2024-02-21T12:54:07;37.75;;;14.05;;
41623;SDS011;27319;50.306;18.926;2024-02-21T12:58:07;44.45;;;17.17;;
41623;SDS011;27319;50.306;18.926;2024-02-21T13:02:08;25.85;;;10.57;;
41623;SDS011;27319;50.306;18.926;2024-02-21T13:06:09;25.50;;;11.57;;
41623;SDS011;27319;50.306;18.926;2024-02-21T13:10:10;24.60;;;9.77;;
41623;SDS011;27319;50.306;18.926;2024-02-21T13:14:11;19.83;;;8.73;;
41623;SDS011;27319;50.306;18.926;2024-02-21T13:18:11;19.63;;;10.32;;
41623;SDS011;27319;50.306;18.926;2024-02-21T13:22:12;29.45;;;12.35;;
41623;SDS011;27319;50.306;18.926;2024-02-21T13:26:13;26.58;;;10.68;;
41623;SDS011;27319;50.306;18.926;2024-02-21T13:30:14;39.60;;;14.75;;
41623;SDS011;27319;50.306;18.926;2024-02-21T13:34:14;26.50;;;11.23;;
41623;SDS011;27319;50.306;18.926;2024-02-21T13:38:18;39.00;;;14.63;;
41623;SDS011;27319;50.306;18.926;2024-02-21T13:42:19;27.73;;;12.55;;
41623;SDS011;27319;50.306;18.926;2024-02-21T13:46:20;35.15;;;11.77;;
41623;SDS011;27319;50.306;18.926;2024-02-21T13:50:21;25.58;;;9.57;;
41623;SDS011;27319;50.306;18.926;2024-02-21T13:54:21;21.52;;;9.27;;
41623;SDS011;27319;50.306;18.926;2024-02-21T13:58:23;28.13;;;10.82;;
41623;SDS011;27319;50.306;18.926;2024-02-21T14:02:23;22.65;;;10.90;;
41623;SDS011;27319;50.306;18.926;2024-02-21T14:06:05;51.60;;;20.63;;
41623;SDS011;27319;50.306;18.926;2024-02-21T14:09:05;43.28;;;16.92;;
41623;SDS011;27319;50.306;18.926;2024-02-21T14:12:08;42.50;;;17.88;;
41623;SDS011;27319;50.306;18.926;2024-02-21T14:15:09;27.92;;;13.48;;
41623;SDS011;27319;50.306;18.926;2024-02-21T14:18:10;24.00;;;10.65;;
41623;SDS011;27319;50.306;18.926;2024-02-21T14:21:11;31.05;;;14.27;;
41623;SDS011;27319;50.306;18.926;2024-02-21T14:24:12;28.48;;;13.10;;
41623;SDS011;27319;50.306;18.926;2024-02-21T14:27:13;22.85;;;10.40;;
41623;SDS011;27319;50.306;18.926;2024-02-21T14:30:14;25.90;;;11.88;;
41623;SDS011;27319;50.306;18.926;2024-02-21T14:34:15;19.77;;;9.13;;
41623;SDS011;27319;50.306;18.926;2024-02-21T14:38:15;21.17;;;8.70;;
41623;SDS011;27319;50.306;18.926;2024-02-21T14:42:16;19.95;;;9.05;;
41623;SDS011;27319;50.306;18.926;2024-02-21T14:45:57;22.13;;;11.27;;
41623;SDS011;27319;50.306;18.926;2024-02-21T14:48:58;31.00;;;15.25;;
41623;SDS011;27319;50.306;18.926;2024-02-21T14:52:58;28.27;;;11.48;;
41623;SDS011;27319;50.306;18.926;2024-02-21T14:56:59;32.97;;;14.65;;
41623;SDS011;27319;50.306;18.926;2024-02-21T15:01:00;46.28;;;17.35;;
41623;SDS011;27319;50.306;18.926;2024-02-21T15:05:01;42.85;;;18.55;;
41623;SDS011;27319;50.306;18.926;2024-02-21T15:09:02;45.30;;;21.27;;
41623;SDS011;27319;50.306;18.926;2024-02-21T15:13:03;40.38;;;16.27;;
41623;SDS011;27319;50.306;18.926;2024-02-21T15:17:04;25.33;;;11.80;;
41623;SDS011;27319;50.306;18.926;2024-02-21T15:21:04;29.92;;;10.18;;
41623;SDS011;27319;50.306;18.926;2024-02-21T15:25:05;31.45;;;13.30;;
41623;SDS011;27319;50.306;18.926;2024-02-21T15:29:06;27.83;;;11.77;;
41623;SDS011;27319;50.306;18.926;2024-02-21T15:33:07;25.50;;;10.55;;
41623;SDS011;27319;50.306;18.926;2024-02-21T15:36:08;20.08;;;8.95;;
41623;SDS011;27319;50.306;18.926;2024-02-21T15:39:09;26.42;;;10.38;;
41623;SDS011;27319;50.306;18.926;2024-02-21T15:43:09;18.42;;;8.27;;
41623;SDS011;27319;50.306;18.926;2024-02-21T15:47:10;25.60;;;9.82;;
41623;SDS011;27319;50.306;18.926;2024-02-21T15:51:11;23.50;;;10.40;;
41623;SDS011;27319;50.306;18.926;2024-02-21T15:55:12;26.80;;;10.80;;
41623;SDS011;27319;50.306;18.926;2024-02-21T15:59:13;29.48;;;11.68;;
41623;SDS011;27319;50.306;18.926;2024-02-21T16:03:16;22.90;;;11.82;;
41623;SDS011;27319;50.306;18.926;2024-02-21T16:07:17;27.33;;;11.85;;
41623;SDS011;27319;50.306;18.926;2024-02-21T16:11:18;33.97;;;13.48;;
41623;SDS011;27319;50.306;18.926;2024-02-21T16:15:19;28.40;;;12.68;;
41623;SDS011;27319;50.306;18.926;2024-02-21T16:19:20;35.90;;;13.30;;
41623;SDS011;27319;50.306;18.926;2024-02-21T16:23:20;31.75;;;15.32;;
41623;SDS011;27319;50.306;18.926;2024-02-21T16:27:21;31.67;;;16.25;;
41623;SDS011;27319;50.306;18.926;2024-02-21T16:31:22;32.40;;;15.57;;
41623;SDS011;27319;50.306;18.926;2024-02-21T16:34:24;30.33;;;14.90;;
41623;SDS011;27319;50.306;18.926;2024-02-21T16:38:25;42.10;;;17.55;;
41623;SDS011;27319;50.306;18.926;2024-02-21T16:42:26;31.15;;;14.80;;
41623;SDS011;27319;50.306;18.926;2024-02-21T16:46:26;36.17;;;16.85;;
41623;SDS011;27319;50.306;18.926;2024-02-21T16:50:27;28.55;;;14.82;;
41623;SDS011;27319;50.306;18.926;2024-02-21T16:54:28;34.30;;;15.20;;
41623;SDS011;27319;50.306;18.926;2024-02-21T16:58:29;29.27;;;14.95;;
41623;SDS011;27319;50.306;18.926;2024-02-21T17:02:29;28.15;;;14.07;;
41623;SDS011;27319;50.306;18.926;2024-02-21T17:06:30;30.05;;;14.13;;
41623;SDS011;27319;50.306;18.926;2024-02-21T17:10:31;43.50;;;18.92;;
41623;SDS011;27319;50.306;18.926;2024-02-21T17:14:32;38.55;;;18.20;;
41623;SDS011;27319;50.306;18.926;2024-02-21T17:18:33;36.80;;;16.08;;
41623;SDS011;27319;50.306;18.926;2024-02-21T17:22:34;30.90;;;16.75;;
41623;SDS011;27319;50.306;18.926;2024-02-21T17:26:37;44.58;;;22.02;;
41623;SDS011;27319;50.306;18.926;2024-02-21T17:30:37;38.47;;;17.92;;
41623;SDS011;27319;50.306;18.926;2024-02-21T17:34:38;39.25;;;17.02;;
41623;SDS011;27319;50.306;18.926;2024-02-21T17:38:39;34.20;;;17.90;;
41623;SDS011;27319;50.306;18.926;2024-02-21T17:42:40;42.80;;;20.55;;
41623;SDS011;27319;50.306;18.926;2024-02-21T17:45:41;52.25;;;25.60;;
41623;SDS011;27319;50.306;18.926;2024-02-21T17:48:42;51.00;;;20.17;;
41623;SDS011;27319;50.306;18.926;2024-02-21T17:51:42;39.50;;;17.77;;
41623;SDS011;27319;50.306;18.926;2024-02-21T17:54:44;38.13;;;16.58;;
41623;SDS011;27319;50.306;18.926;2024-02-21T17:58:44;40.25;;;18.20;;
41623;SDS011;27319;50.306;18.926;2024-02-21T18:02:45;41.22;;;17.00;;
41623;SDS011;27319;50.306;18.926;2024-02-21T18:06:46;37.10;;;18.40;;
41623;SDS011;27319;50.306;18.926;2024-02-21T18:09:47;48.55;;;22.80;;
41623;SDS011;27319;50.306;18.926;2024-02-21T18:12:50;39.67;;;20.42;;
41623;SDS011;27319;50.306;18.926;2024-02-21T18:15:51;41.50;;;20.35;;
41623;SDS011;27319;50.306;18.926;2024-02-21T18:18:52;33.60;;;15.85;;
41623;SDS011;27319;50.306;18.926;2024-02-21T18:21:53;37.85;;;18.42;;
41623;SDS011;27319;50.306;18.926;2024-02-21T18:24:58;32.00;;;17.27;;
41623;SDS011;27319;50.306;18.926;2024-02-21T18:27:58;41.08;;;17.42;;
41623;SDS011;27319;50.306;18.926;2024-02-21T18:31:59;38.45;;;17.92;;
41623;SDS011;27319;50.306;18.926;2024-02-21T18:36:00;38.53;;;16.00;;
41623;SDS011;27319;50.306;18.926;2024-02-21T18:40:01;34.20;;;17.25;;
41623;SDS011;27319;50.306;18.926;2024-02-21T18:44:02;31.48;;;14.98;;
41623;SDS011;27319;50.306;18.926;2024-02-21T18:48:02;29.27;;;14.13;;
41623;SDS011;27319;50.306;18.926;2024-02-21T18:52:03;29.75;;;13.73;;
41623;SDS011;27319;50.306;18.926;2024-02-21T18:56:04;29.10;;;14.82;;
41623;SDS011;27319;50.306;18.926;2024-02-21T19:00:05;35.67;;;15.65;;
41623;SDS011;27319;50.306;18.926;2024-02-21T19:04:06;26.50;;;14.50;;
41623;SDS011;27319;50.306;18.926;2024-02-21T19:08:06;34.42;;;16.00;;
41623;SDS011;27319;50.306;18.926;2024-02-21T19:12:07;38.33;;;17.58;;
41623;SDS011;27319;50.306;18.926;2024-02-21T19:16:08;40.75;;;18.52;;
41623;SDS011;27319;50.306;18.926;2024-02-21T19:20:09;41.72;;;20.33;;
41623;SDS011;27319;50.306;18.926;2024-02-21T19:24:10;50.53;;;22.70;;
41623;SDS011;27319;50.306;18.926;2024-02-21T19:28:11;47.47;;;20.55;;
41623;SDS011;27319;50.306;18.926;2024-02-21T19:32:12;57.35;;;24.27;;
41623;SDS011;27319;50.306;18.926;2024-02-21T19:36:17;44.38;;;22.00;;
41623;SDS011;27319;50.306;18.926;2024-02-21T19:40:17;41.28;;;18.17;;
41623;SDS011;27319;50.306;18.926;2024-02-21T19:44:18;36.90;;;17.45;;
41623;SDS011;27319;50.306;18.926;2024-02-21T19:48:19;33.88;;;17.10;;
41623;SDS011;27319;50.306;18.926;2024-02-21T19:51:19;35.60;;;17.55;;
41623;SDS011;27319;50.306;18.926;2024-02-21T19:54:20;36.03;;;16.98;;
41623;SDS011;27319;50.306;18.926;2024-02-21T19:57:22;39.42;;;17.00;;
41623;SDS011;27319;50.306;18.926;2024-02-21T20:01:23;41.65;;;17.33;;
41623;SDS011;27319;50.306;18.926;2024-02-21T20:05:23;40.90;;;17.63;;
41623;SDS011;27319;50.306;18.926;2024-02-21T20:09:24;38.95;;;15.95;;
41623;SDS011;27319;50.306;18.926;2024-02-21T20:13:25;33.92;;;15.82;;
41623;SDS011;27319;50.306;18.926;2024-02-21T20:17:26;33.72;;;15.35;;
41623;SDS011;27319;50.306;18.926;2024-02-21T20:21:27;41.85;;;16.27;;
41623;SDS011;27319;50.306;18.926;2024-02-21T20:24:44;38.60;;;15.85;;
41623;SDS011;27319;50.306;18.926;2024-02-21T20:28:45;40.67;;;16.42;;
41623;SDS011;27319;50.306;18.926;2024-02-21T20:32:46;38.92;;;18.10;;
41623;SDS011;27319;50.306;18.926;2024-02-21T20:36:47;41.60;;;16.10;;
41623;SDS011;27319;50.306;18.926;2024-02-21T20:39:47;43.70;;;21.27;;
41623;SDS011;27319;50.306;18.926;2024-02-21T20:42:49;46.78;;;19.75;;
41623;SDS011;27319;50.306;18.926;2024-02-21T20:45:49;41.20;;;20.02;;
41623;SDS011;27319;50.306;18.926;2024-02-21T20:48:50;36.65;;;17.98;;
41623;SDS011;27319;50.306;18.926;2024-02-21T20:51:51;38.50;;;18.63;;
41623;SDS011;27319;50.306;18.926;2024-02-21T20:54:52;33.13;;;16.98;;
41623;SDS011;27319;50.306;18.926;2024-02-21T20:57:53;31.35;;;16.42;;
41623;SDS011;27319;50.306;18.926;2024-02-21T21:00:54;35.55;;;16.85;;
41623;SDS011;27319;50.306;18.926;2024-02-21T21:04:55;29.20;;;16.00;;
41623;SDS011;27319;50.306;18.926;2024-02-21T21:08:56;31.77;;;15.50;;
41623;SDS011;27319;50.306;18.926;2024-02-21T21:11:57;32.58;;;15.40;;
41623;SDS011;27319;50.306;18.926;2024-02-21T21:15:57;41.72;;;19.02;;
41623;SDS011;27319;50.306;18.926;2024-02-21T21:19:58;31.10;;;16.77;;